Time;durP1;ratioP1;P1;durP2;ratioP2;P2;SDS_P1;SDS_P2;PMS_P1;PMS_P2;Temp;Humidity;BMP_temperature;BMP_pressure;BME280_temperature;BME280_humidity;BME280_pressure;Samples;Min_cycle;Max_cycle;Signal;HPM_P1;HPM_P2
2023/08/23 00:01:21;;;;;;;3.85;2.40;;;22.50;52.50;;;;;;5022054;28;20072;-68
2023/08/23 00:03:48;;;;;;;4.82;2.67;;;22.50;52.60;;;;;;5023490;28;20073;-68
2023/08/23 00:06:16;;;;;;;6.30;2.58;;;22.50;53.10;;;;;;5023177;28;20406;-65
2023/08/23 00:08:44;;;;;;;3.85;2.60;;;22.40;52.60;;;;;;5024648;28;20060;-68
2023/08/23 00:11:11;;;;;;;3.00;2.20;;;22.50;52.80;;;;;;5024714;28;20053;-67
2023/08/23 00:13:39;;;;;;;5.28;2.33;;;22.40;52.70;;;;;;5023442;28;20064;-70
2023/08/23 00:16:06;;;;;;;3.92;2.70;;;22.40;52.80;;;;;;5023818;28;20409;-68
2023/08/23 00:18:33;;;;;;;6.25;2.75;;;22.40;52.80;;;;;;5024058;28;20120;-64
2023/08/23 00:21:00;;;;;;;6.53;2.70;;;22.40;52.90;;;;;;5022559;28;20053;-69
2023/08/23 00:23:27;;;;;;;4.32;2.40;;;22.30;52.90;;;;;;5023129;28;20053;-69
2023/08/23 00:25:56;;;;;;;4.00;2.58;;;22.30;53.00;;;;;;5023281;28;20053;-69
2023/08/23 00:28:23;;;;;;;6.53;2.60;;;22.30;53.00;;;;;;5022785;28;20060;-68
2023/08/23 00:30:51;;;;;;;4.65;2.60;;;22.30;53.10;;;;;;5021305;28;20049;-68
2023/08/23 00:33:19;;;;;;;5.32;2.28;;;22.20;53.00;;;;;;5023449;28;20061;-69
2023/08/23 00:35:46;;;;;;;6.80;2.70;;;22.20;53.10;;;;;;5022418;28;20516;-69
2023/08/23 00:38:13;;;;;;;4.13;2.45;;;22.20;53.20;;;;;;5023290;28;20053;-69
2023/08/23 00:40:41;;;;;;;3.90;2.33;;;22.20;53.20;;;;;;5021582;28;20057;-66
2023/08/23 00:43:09;;;;;;;6.18;2.60;;;22.20;53.20;;;;;;5021098;28;20053;-64
2023/08/23 00:45:37;;;;;;;4.70;2.40;;;22.20;53.30;;;;;;5022779;28;21179;-68
2023/08/23 00:48:07;;;;;;;7.15;3.15;;;22.10;53.20;;;;;;5022951;28;20050;-68
2023/08/23 00:50:35;;;;;;;4.80;2.30;;;22.10;53.20;;;;;;5022957;28;20061;-68
2023/08/23 00:53:03;;;;;;;4.32;2.45;;;22.10;53.30;;;;;;5022337;28;20045;-63
2023/08/23 00:55:31;;;;;;;3.45;2.35;;;22.00;53.30;;;;;;5023986;28;20054;-69
2023/08/23 00:57:58;;;;;;;4.82;2.20;;;22.00;53.30;;;;;;5021543;28;20056;-68
2023/08/23 01:00:31;;;;;;;5.78;2.65;;;22.00;53.40;;;;;;5032562;23;20057;-92
2023/08/23 01:02:58;;;;;;;4.88;2.60;;;22.00;53.50;;;;;;5055768;28;20063;-92
2023/08/23 01:05:35;;;;;;;3.92;2.50;;;21.90;53.50;;;;;;5058824;28;20409;-91
2023/08/23 01:08:11;;;;;;;4.18;2.58;;;21.90;53.70;;;;;;5053327;28;20064;-91
2023/08/23 01:10:48;;;;;;;5.13;2.83;;;21.90;53.70;;;;;;5055100;28;20060;-90
2023/08/23 01:13:22;;;;;;;4.25;2.63;;;21.90;53.70;;;;;;5053656;28;20108;-91
2023/08/23 01:16:05;;;;;;;8.27;2.90;;;21.80;53.70;;;;;;5055763;28;20412;-91
2023/08/23 01:18:33;;;;;;;5.10;3.00;;;21.80;53.80;;;;;;5053853;28;20064;-90
2023/08/23 01:21:03;;;;;;;6.20;2.67;;;21.80;53.80;;;;;;5058573;28;20056;-91
2023/08/23 01:23:34;;;;;;;6.25;3.05;;;21.80;54.00;;;;;;5057688;28;20052;-90
2023/08/23 01:26:02;;;;;;;4.97;3.17;;;21.70;53.90;;;;;;5057312;28;20053;-91
2023/08/23 01:28:29;;;;;;;5.47;2.72;;;21.70;53.90;;;;;;5052507;28;20049;-92
2023/08/23 01:31:00;;;;;;;4.88;3.15;;;21.70;54.40;;;;;;5055310;28;20045;-91
2023/08/23 01:33:35;;;;;;;3.42;2.60;;;21.70;54.00;;;;;;5053052;28;20057;-90
2023/08/23 01:36:02;;;;;;;;;;;21.60;54.00;;;;;;5056277;28;20501;-91
2023/08/23 01:38:33;;;;;;;7.55;3.53;;;21.70;53.90;;;;;;5064017;28;19920;-90
2023/08/23 01:41:01;;;;;;;4.18;2.92;;;21.60;53.80;;;;;;5054117;28;20419;-91
2023/08/23 01:43:28;;;;;;;4.60;3.25;;;21.60;53.90;;;;;;5052418;28;20063;-91
2023/08/23 01:45:56;;;;;;;4.38;3.08;;;21.60;54.00;;;;;;5055742;28;20057;-91
2023/08/23 01:48:23;;;;;;;8.68;3.10;;;21.50;54.10;;;;;;5057139;28;20052;-91
2023/08/23 01:50:52;;;;;;;6.07;2.65;;;21.50;54.20;;;;;;5048936;28;20048;-91
2023/08/23 01:53:19;;;;;;;7.30;2.45;;;21.50;54.20;;;;;;5055256;28;20072;-90
2023/08/23 01:55:48;;;;;;;8.32;3.13;;;21.40;54.30;;;;;;5057630;28;20416;-91
2023/08/23 01:58:15;;;;;;;6.53;3.45;;;21.40;54.40;;;;;;5058779;28;20056;-90
2023/08/23 02:00:47;;;;;;;4.80;2.72;;;21.40;54.40;;;;;;5057256;28;20515;-91
2023/08/23 02:03:15;;;;;;;3.42;2.33;;;21.40;55.00;;;;;;5058491;28;20056;-91
2023/08/23 02:05:42;;;;;;;4.35;2.75;;;21.40;54.50;;;;;;5058453;28;20524;-91
2023/08/23 02:08:09;;;;;;;4.75;2.70;;;21.40;55.00;;;;;;5060451;28;20053;-91
2023/08/23 02:10:37;;;;;;;8.10;2.88;;;21.40;55.10;;;;;;5055593;28;20057;-89
2023/08/23 02:13:08;;;;;;;4.85;2.85;;;21.30;54.60;;;;;;5055553;28;20053;-89
2023/08/23 02:15:35;;;;;;;5.45;2.72;;;21.30;54.70;;;;;;5058714;28;20048;-90
2023/08/23 02:18:03;;;;;;;4.93;2.83;;;21.30;54.70;;;;;;5060176;28;20052;-89
2023/08/23 02:20:30;;;;;;;4.90;2.63;;;21.30;54.70;;;;;;5057093;28;20049;-89
2023/08/23 02:22:58;;;;;;;5.70;2.83;;;21.30;54.80;;;;;;5057913;28;20566;-89
2023/08/23 02:25:25;;;;;;;4.63;3.00;;;21.30;54.80;;;;;;5059540;28;20606;-89
2023/08/23 02:27:52;;;;;;;4.95;2.78;;;21.20;54.80;;;;;;5056905;28;20108;-90
2023/08/23 02:30:22;;;;;;;6.97;3.10;;;21.20;54.80;;;;;;5055586;28;20061;-89
2023/08/23 02:32:49;;;;;;;4.53;2.90;;;21.20;54.90;;;;;;5055988;28;20071;-89
2023/08/23 02:35:17;;;;;;;6.60;3.42;;;21.20;54.90;;;;;;5059007;28;20393;-89
2023/08/23 02:37:44;;;;;;;7.18;2.97;;;21.20;54.90;;;;;;5058543;28;20067;-89
2023/08/23 02:40:13;;;;;;;5.80;2.92;;;21.10;54.90;;;;;;5053575;28;20052;-89
2023/08/23 02:42:40;;;;;;;3.70;2.97;;;21.10;54.90;;;;;;5056268;28;20053;-88
2023/08/23 02:45:08;;;;;;;7.50;3.25;;;21.10;54.90;;;;;;5058110;28;20052;-90
2023/08/23 02:47:37;;;;;;;7.35;3.40;;;21.10;55.00;;;;;;5059846;28;20055;-90
2023/08/23 02:50:06;;;;;;;5.55;2.92;;;21.10;55.00;;;;;;5053390;28;20083;-88
2023/08/23 02:52:34;;;;;;;6.93;3.65;;;21.10;55.10;;;;;;5056766;28;20052;-89
2023/08/23 02:55:01;;;;;;;5.68;2.92;;;21.00;55.00;;;;;;5055523;28;20051;-90
2023/08/23 02:57:31;;;;;;;8.25;3.22;;;21.10;55.10;;;;;;5050595;28;20071;-90
2023/08/23 02:59:59;;;;;;;5.85;3.80;;;21.00;55.10;;;;;;5055949;28;20063;-90
2023/08/23 03:02:27;;;;;;;5.72;3.15;;;21.00;55.20;;;;;;5056608;28;20059;-89
2023/08/23 03:05:05;;;;;;;4.95;3.22;;;21.00;55.20;;;;;;5052908;28;20056;-92
2023/08/23 03:07:32;;;;;;;7.80;4.22;;;21.00;55.30;;;;;;5049552;28;20059;-89
2023/08/23 03:10:02;;;;;;;7.38;4.15;;;20.90;55.20;;;;;;5058763;28;20059;-90
2023/08/23 03:12:29;;;;;;;7.07;3.67;;;20.90;55.20;;;;;;5053501;28;20048;-89
2023/08/23 03:14:57;;;;;;;5.13;3.78;;;20.90;55.20;;;;;;5058324;28;20523;-89
2023/08/23 03:17:24;;;;;;;9.63;4.57;;;20.80;55.20;;;;;;5062808;28;20056;-88
2023/08/23 03:19:57;;;;;;;6.57;4.22;;;20.80;55.20;;;;;;5058199;28;20052;-92
2023/08/23 03:22:26;;;;;;;7.57;4.53;;;20.80;55.30;;;;;;5060854;28;20060;-87
2023/08/23 03:24:53;;;;;;;6.65;4.35;;;20.80;55.30;;;;;;5059754;28;20056;-88
2023/08/23 03:27:21;;;;;;;8.73;4.05;;;20.70;55.30;;;;;;5059226;28;20044;-90
2023/08/23 03:29:49;;;;;;;7.03;4.75;;;20.70;55.40;;;;;;5061054;28;20562;-88
2023/08/23 03:32:16;;;;;;;6.13;4.03;;;20.70;55.50;;;;;;5054140;28;20056;-89
2023/08/23 03:34:44;;;;;;;7.35;4.40;;;20.70;56.10;;;;;;5059978;28;20060;-88
2023/08/23 03:37:12;;;;;;;9.85;4.35;;;20.60;55.60;;;;;;5059713;28;20052;-89
2023/08/23 03:39:40;;;;;;;8.35;4.15;;;20.60;55.70;;;;;;5056714;28;20063;-89
2023/08/23 03:42:08;;;;;;;7.00;4.10;;;20.60;55.70;;;;;;5054779;28;20411;-90
2023/08/23 03:44:35;;;;;;;5.30;4.40;;;20.60;55.80;;;;;;5060548;28;20420;-88
2023/08/23 03:47:03;;;;;;;8.15;4.47;;;20.50;55.80;;;;;;5060390;28;20059;-88
2023/08/23 03:49:31;;;;;;;7.20;4.15;;;20.50;55.90;;;;;;5059954;28;20056;-88
2023/08/23 03:51:59;;;;;;;6.38;4.13;;;20.50;55.90;;;;;;5059703;28;20052;-90
2023/08/23 03:54:30;;;;;;;6.97;4.20;;;20.50;56.00;;;;;;5060329;28;20052;-89
2023/08/23 03:56:57;;;;;;;9.15;4.60;;;20.40;56.10;;;;;;5058534;28;20068;-87
2023/08/23 03:59:25;;;;;;;6.28;4.13;;;20.40;56.00;;;;;;5040184;28;20511;-87
2023/08/23 04:01:54;;;;;;;6.13;4.43;;;20.40;56.10;;;;;;5037618;28;20057;-90
2023/08/23 04:04:22;;;;;;;7.25;4.63;;;20.40;56.10;;;;;;5039466;28;20045;-87
2023/08/23 04:06:50;;;;;;;6.90;4.40;;;20.40;56.10;;;;;;5039420;28;20063;-86
2023/08/23 04:09:17;;;;;;;5.82;4.00;;;20.40;56.20;;;;;;5037517;28;20060;-88
2023/08/23 04:11:47;;;;;;;8.40;3.95;;;20.40;56.20;;;;;;5038599;28;20056;-88
2023/08/23 04:14:15;;;;;;;9.93;4.68;;;20.40;56.30;;;;;;5039541;28;20056;-88
2023/08/23 04:16:42;;;;;;;8.50;5.25;;;20.40;56.30;;;;;;5038105;28;20060;-89
2023/08/23 04:19:09;;;;;;;8.65;4.88;;;20.30;56.30;;;;;;5038910;28;20063;-89
2023/08/23 04:21:37;;;;;;;6.68;4.07;;;20.30;56.30;;;;;;5039366;28;20045;-88
2023/08/23 04:24:05;;;;;;;7.63;4.45;;;20.30;56.30;;;;;;5039683;28;20045;-89
2023/08/23 04:26:32;;;;;;;5.53;4.57;;;20.30;56.30;;;;;;5038479;28;20052;-89
2023/08/23 04:29:02;;;;;;;10.73;4.85;;;20.30;56.40;;;;;;5038082;28;20389;-89
2023/08/23 04:31:30;;;;;;;5.85;4.40;;;20.20;56.40;;;;;;5038756;28;20051;-88
2023/08/23 04:33:57;;;;;;;6.13;4.13;;;20.30;56.40;;;;;;5038510;28;20057;-89
2023/08/23 04:36:27;;;;;;;7.72;5.03;;;20.20;56.40;;;;;;5037943;28;20064;-91
2023/08/23 04:38:55;;;;;;;9.02;4.70;;;20.20;56.40;;;;;;5036889;28;20057;-90
2023/08/23 04:41:23;;;;;;;6.10;4.47;;;20.20;56.40;;;;;;5035139;28;20061;-91
2023/08/23 04:43:51;;;;;;;7.13;4.53;;;20.20;56.50;;;;;;5036616;28;20060;-90
2023/08/23 04:46:20;;;;;;;5.75;4.15;;;20.20;56.50;;;;;;5040670;28;20045;-91
2023/08/23 04:48:47;;;;;;;8.25;4.80;;;20.20;56.60;;;;;;5036219;28;20056;-89
2023/08/23 04:51:15;;;;;;;6.10;4.43;;;20.20;56.60;;;;;;5036475;28;20057;-89
2023/08/23 04:53:44;;;;;;;7.15;4.03;;;20.20;56.60;;;;;;5036800;28;20530;-90
2023/08/23 04:56:11;;;;;;;8.95;4.38;;;20.20;56.60;;;;;;5036206;28;20056;-89
2023/08/23 04:58:39;;;;;;;9.10;4.43;;;20.10;56.60;;;;;;5040563;28;20063;-91
2023/08/23 05:01:07;;;;;;;4.70;3.80;;;20.10;56.60;;;;;;5035501;28;20135;-92
2023/08/23 05:03:36;;;;;;;12.25;7.57;;;20.10;56.70;;;;;;5038189;28;20063;-88
2023/08/23 05:06:04;;;;;;;17.85;11.60;;;20.10;56.80;;;;;;5036201;28;20063;-89
2023/08/23 05:08:33;;;;;;;10.45;6.70;;;20.10;56.80;;;;;;5040133;28;20079;-88
2023/08/23 05:11:00;;;;;;;6.85;4.95;;;20.10;56.80;;;;;;5038252;28;20052;-89
2023/08/23 05:13:28;;;;;;;6.88;4.45;;;20.10;56.80;;;;;;5041773;28;20056;-88
2023/08/23 05:15:56;;;;;;;4.82;3.85;;;20.10;56.80;;;;;;5040041;28;20394;-89
2023/08/23 05:18:23;;;;;;;10.00;4.68;;;20.10;56.90;;;;;;5045238;28;20052;-88
2023/08/23 05:21:03;;;;;;;6.28;4.10;;;20.10;57.00;;;;;;5039828;28;20049;-87
2023/08/23 05:23:30;;;;;;;6.47;4.25;;;20.10;57.10;;;;;;5034040;28;20165;-89
2023/08/23 05:25:58;;;;;;;6.28;4.20;;;20.00;57.00;;;;;;5035813;28;20398;-89
2023/08/23 05:28:26;;;;;;;5.80;3.60;;;20.10;57.10;;;;;;5016474;28;20107;-89
2023/08/23 05:30:53;;;;;;;6.53;4.07;;;20.10;57.20;;;;;;5048175;28;20049;-88
2023/08/23 05:33:21;;;;;;;6.55;4.68;;;20.00;57.70;;;;;;5044122;28;20064;-88
2023/08/23 05:35:48;;;;;;;6.15;4.15;;;20.10;57.30;;;;;;5039672;28;20049;-87
2023/08/23 05:38:19;;;;;;;4.70;4.00;;;20.10;57.40;;;;;;5039137;28;20115;-88
2023/08/23 05:40:50;;;;;;;5.28;3.88;;;20.10;57.40;;;;;;5034531;28;20052;-88
2023/08/23 05:43:18;;;;;;;5.80;3.95;;;20.10;57.50;;;;;;5041411;28;20099;-87
2023/08/23 05:45:45;;;;;;;11.88;7.57;;;20.10;57.50;;;;;;5049489;28;20481;-87
2023/08/23 05:48:14;;;;;;;8.75;5.82;;;20.10;57.60;;;;;;5042417;28;20053;-89
2023/08/23 05:50:42;;;;;;;8.00;5.53;;;20.10;57.70;;;;;;5038966;28;20420;-89
2023/08/23 05:53:11;;;;;;;7.43;4.20;;;20.10;57.70;;;;;;5040381;28;20091;-87
2023/08/23 05:55:39;;;;;;;7.15;4.10;;;20.20;57.80;;;;;;5038892;28;20061;-88
2023/08/23 05:58:07;;;;;;;4.40;3.72;;;20.20;57.80;;;;;;5041219;28;20041;-87
2023/08/23 06:00:34;;;;;;;4.47;3.40;;;20.20;57.90;;;;;;5039035;28;20421;-87
2023/08/23 06:03:02;;;;;;;5.10;3.63;;;20.20;58.00;;;;;;5040213;28;20053;-88
2023/08/23 06:05:29;;;;;;;9.18;3.42;;;20.20;58.00;;;;;;5041325;28;20048;-88
2023/08/23 06:08:03;;;;;;;4.30;3.90;;;20.30;58.60;;;;;;5040807;28;20561;-91
2023/08/23 06:10:31;;;;;;;5.13;3.35;;;20.30;58.20;;;;;;5037595;28;20378;-87
2023/08/23 06:13:00;;;;;;;3.72;3.30;;;20.30;58.20;;;;;;5039062;28;20048;-86
2023/08/23 06:15:32;;;;;;;4.43;3.75;;;20.30;58.30;;;;;;5037748;28;20853;-91
2023/08/23 06:18:00;;;;;;;5.72;3.50;;;20.40;58.40;;;;;;5041513;28;20389;-87
2023/08/23 06:20:29;;;;;;;5.60;3.25;;;20.40;58.30;;;;;;5037023;28;20079;-88
2023/08/23 06:22:57;;;;;;;8.95;4.00;;;20.50;58.40;;;;;;5035338;28;20053;-87
2023/08/23 06:25:24;;;;;;;3.88;3.40;;;20.50;58.50;;;;;;5034912;28;20060;-87
2023/08/23 06:27:51;;;;;;;5.90;3.50;;;20.50;58.50;;;;;;5035263;28;20053;-87
2023/08/23 06:30:24;;;;;;;6.22;4.03;;;20.60;58.60;;;;;;5046141;28;20056;-89
2023/08/23 06:32:54;;;;;;;4.72;3.35;;;20.60;58.70;;;;;;5034998;28;20049;-89
2023/08/23 06:35:26;;;;;;;4.80;3.50;;;20.70;58.70;;;;;;5036461;28;20065;-89
2023/08/23 06:37:53;;;;;;;4.13;3.20;;;20.70;58.70;;;;;;5040125;28;20053;-86
2023/08/23 06:40:21;;;;;;;5.75;3.05;;;20.70;58.70;;;;;;5041340;28;20049;-88
2023/08/23 06:42:48;;;;;;;5.13;3.97;;;20.70;58.80;;;;;;5040096;28;20421;-87
2023/08/23 06:45:15;;;;;;;21.60;11.60;;;20.80;58.90;;;;;;5042569;28;20061;-88
2023/08/23 06:47:44;;;;;;;17.10;10.35;;;20.80;58.90;;;;;;5047378;28;20057;-89
2023/08/23 06:50:11;;;;;;;8.30;5.22;;;20.90;59.00;;;;;;5040838;28;20060;-93
2023/08/23 06:52:39;;;;;;;5.25;3.70;;;20.90;58.90;;;;;;5041609;28;20056;-92
2023/08/23 06:55:07;;;;;;;6.20;3.78;;;21.00;59.10;;;;;;5041190;28;20053;-89
2023/08/23 06:57:35;;;;;;;5.97;3.80;;;21.00;59.60;;;;;;5046927;28;20056;-91
2023/08/23 07:00:02;;;;;;;5.57;3.97;;;21.00;59.30;;;;;;5042067;28;20524;-92
2023/08/23 07:02:30;;;;;;;4.78;3.22;;;21.10;59.40;;;;;;5042307;28;20052;-93
2023/08/23 07:04:58;;;;;;;3.90;3.50;;;21.10;59.40;;;;;;5043046;28;20057;-92
2023/08/23 07:07:28;;;;;;;3.95;3.10;;;21.20;59.50;;;;;;5042603;28;20057;-90
2023/08/23 07:09:57;;;;;;;4.05;3.05;;;21.20;59.40;;;;;;5040674;28;20411;-89
2023/08/23 07:12:25;;;;;;;6.75;3.30;;;21.30;59.40;;;;;;5038963;28;20079;-91
2023/08/23 07:14:52;;;;;;;6.80;3.33;;;21.30;59.60;;;;;;5039272;28;20064;-92
2023/08/23 07:17:19;;;;;;;5.60;3.38;;;21.40;59.80;;;;;;5047255;28;20067;-92
2023/08/23 07:19:50;;;;;;;5.13;3.95;;;21.40;59.70;;;;;;5045651;28;20053;-92
2023/08/23 07:22:25;;;;;;;9.80;3.90;;;21.50;59.80;;;;;;5035765;28;20048;-89
2023/08/23 07:24:54;;;;;;;4.65;3.00;;;21.50;60.00;;;;;;5048897;28;20056;-91
2023/08/23 07:27:27;;;;;;;6.38;4.40;;;21.60;59.90;;;;;;5043375;28;20485;-91
2023/08/23 07:29:58;;;;;;;6.10;4.03;;;21.70;60.10;;;;;;5052580;28;20060;-93
2023/08/23 07:36:01;;;;;;;4.30;3.22;;;21.80;60.40;;;;;;5080698;28;20035;-92
2023/08/23 07:38:32;;;;;;;6.70;4.25;;;21.90;60.50;;;;;;5048903;28;20065;-92
2023/08/23 07:41:06;;;;;;;8.57;4.85;;;21.90;60.50;;;;;;5050831;28;20056;-91
2023/08/23 07:43:39;;;;;;;7.82;4.32;;;21.90;61.30;;;;;;5045299;28;20064;-90
2023/08/23 07:46:08;;;;;;;7.28;4.13;;;22.00;60.70;;;;;;5050438;28;20495;-93
2023/08/23 07:48:43;;;;;;;6.65;4.40;;;22.10;60.70;;;;;;5050395;28;20049;-91
2023/08/23 07:51:12;;;;;;;5.97;3.88;;;22.20;61.10;;;;;;5048264;28;20060;-90
2023/08/23 07:53:48;;;;;;;9.50;4.00;;;22.20;60.90;;;;;;5047142;28;20428;-92
2023/08/23 07:56:27;;;;;;;7.55;3.63;;;22.30;60.80;;;;;;5044844;28;20053;-89
2023/08/23 07:59:01;;;;;;;5.65;4.03;;;22.40;60.70;;;;;;5045478;28;20064;-92
2023/08/23 08:01:28;;;;;;;5.60;3.87;;;22.40;60.50;;;;;;5041323;28;20528;-92
2023/08/23 08:03:56;;;;;;;10.68;4.60;;;22.50;60.50;;;;;;5041422;28;20472;-92
2023/08/23 08:06:23;;;;;;;7.63;4.32;;;22.60;60.40;;;;;;5041782;28;20053;-88
2023/08/23 08:08:52;;;;;;;6.68;4.50;;;22.60;60.10;;;;;;5041737;28;20057;-91
2023/08/23 08:11:19;;;;;;;8.18;3.80;;;22.70;60.10;;;;;;5040263;28;20139;-91
2023/08/23 08:13:47;;;;;;;8.65;4.00;;;22.80;60.00;;;;;;5040818;28;20080;-94
2023/08/23 08:16:15;;;;;;;7.88;4.00;;;22.80;59.80;;;;;;5047754;28;20206;-92
2023/08/23 08:18:43;;;;;;;7.53;3.80;;;22.90;59.80;;;;;;5041928;28;20057;-91
2023/08/23 08:21:11;;;;;;;4.80;3.63;;;23.00;59.70;;;;;;5041439;28;20523;-91
2023/08/23 08:23:38;;;;;;;7.70;4.95;;;23.00;59.70;;;;;;5040400;28;20060;-91
2023/08/23 08:26:10;;;;;;;6.05;3.38;;;23.10;59.70;;;;;;5047120;28;20049;-90
2023/08/23 08:28:42;;;;;;;7.70;3.03;;;23.10;59.60;;;;;;5039527;28;20420;-91
2023/08/23 08:31:09;;;;;;;5.93;3.10;;;23.20;59.40;;;;;;5040682;28;20410;-89
2023/08/23 08:33:38;;;;;;;6.63;3.30;;;23.30;59.20;;;;;;5041258;28;20493;-90
2023/08/23 08:36:06;;;;;;;4.75;2.95;;;23.30;58.90;;;;;;5040990;28;20681;-92
2023/08/23 08:38:35;;;;;;;5.57;2.70;;;23.40;58.70;;;;;;5039577;28;20539;-87
2023/08/23 08:41:03;;;;;;;7.70;2.88;;;23.50;58.60;;;;;;5039898;28;20056;-90
2023/08/23 08:43:32;;;;;;;8.50;2.35;;;23.50;59.00;;;;;;5036485;28;20056;-92
2023/08/23 08:46:01;;;;;;;4.78;2.30;;;23.60;58.10;;;;;;5036017;28;20053;-91
2023/08/23 08:48:28;;;;;;;10.05;2.22;;;23.70;58.10;;;;;;5037954;28;20064;-91
2023/08/23 08:51:01;;;;;;;6.90;2.40;;;23.80;57.90;;;;;;5035357;28;20056;-88
2023/08/23 08:53:32;;;;;;;4.53;1.98;;;23.80;57.70;;;;;;5036886;28;20416;-91
2023/08/23 08:56:00;;;;;;;6.95;2.28;;;23.90;57.50;;;;;;5034916;28;20049;-90
2023/08/23 08:58:31;;;;;;;5.20;2.03;;;23.90;57.50;;;;;;5037659;28;20980;-90
2023/08/23 09:01:04;;;;;;;5.60;2.30;;;24.00;57.20;;;;;;5033120;28;20069;-89
2023/08/23 09:03:32;;;;;;;6.32;1.95;;;24.00;56.70;;;;;;5036086;28;20076;-90
2023/08/23 09:05:59;;;;;;;4.72;2.03;;;24.10;56.50;;;;;;5034860;28;20056;-90
2023/08/23 09:08:27;;;;;;;4.25;1.80;;;24.20;56.30;;;;;;5037638;28;20079;-88
2023/08/23 09:10:54;;;;;;;3.53;2.10;;;24.20;56.30;;;;;;5037138;28;20423;-87
2023/08/23 09:13:22;;;;;;;6.28;1.83;;;24.30;56.10;;;;;;5038255;28;20064;-86
2023/08/23 09:15:52;;;;;;;9.43;2.22;;;24.30;56.00;;;;;;5038323;28;20061;-86
2023/08/23 09:18:19;;;;;;;9.52;3.60;;;24.40;55.50;;;;;;5044522;28;20049;-87
2023/08/23 09:20:47;;;;;;;5.90;3.15;;;24.40;55.00;;;;;;5034191;28;20068;-86
2023/08/23 09:23:14;;;;;;;4.00;2.03;;;24.50;54.30;;;;;;5034049;28;20060;-86
2023/08/23 09:25:42;;;;;;;4.63;2.00;;;24.50;54.50;;;;;;5036460;28;20060;-87
2023/08/23 09:28:13;;;;;;;24.42;4.90;;;24.60;54.70;;;;;;5037501;28;20509;-86
2023/08/23 09:30:49;;;;;;;9.30;3.75;;;24.60;54.30;;;;;;5035724;28;20057;-87
2023/08/23 09:33:17;;;;;;;6.07;2.95;;;24.70;54.10;;;;;;5040112;28;20057;-88
2023/08/23 09:35:50;;;;;;;6.15;2.67;;;24.70;53.20;;;;;;5036121;28;20301;-87
2023/08/23 09:38:21;;;;;;;4.05;2.03;;;24.80;53.10;;;;;;5038286;28;20053;-87
2023/08/23 09:40:48;;;;;;;8.70;2.65;;;24.80;53.50;;;;;;5034987;28;20057;-86
2023/08/23 09:43:16;;;;;;;5.70;2.20;;;24.90;53.40;;;;;;5036584;28;20053;-87
2023/08/23 09:45:44;;;;;;;8.13;3.15;;;25.00;53.60;;;;;;5036761;28;20049;-86
2023/08/23 09:48:17;;;;;;;9.85;2.95;;;25.00;53.10;;;;;;5034949;28;20053;-88
2023/08/23 09:50:46;;;;;;;5.57;2.03;;;25.10;52.50;;;;;;5036939;28;20057;-86
2023/08/23 09:53:22;;;;;;;211.90;26.50;;;25.10;52.40;;;;;;5037160;28;20053;-88
2023/08/23 09:55:49;;;;;;;5.90;2.45;;;25.20;51.70;;;;;;5037327;28;20506;-86
2023/08/23 09:58:17;;;;;;;36.75;8.13;;;25.20;50.60;;;;;;5039099;28;20056;-86
2023/08/23 10:00:48;;;;;;;8.52;2.63;;;25.30;51.10;;;;;;5036494;28;20971;-88
2023/08/23 10:03:19;;;;;;;6.80;2.20;;;25.30;50.90;;;;;;5034059;28;20048;-86
2023/08/23 10:05:47;;;;;;;8.52;2.15;;;25.40;48.80;;;;;;5036524;28;20446;-86
2023/08/23 10:08:16;;;;;;;3.97;1.83;;;25.40;49.30;;;;;;5034367;28;20056;-87
2023/08/23 10:10:44;;;;;;;5.57;1.85;;;25.50;48.50;;;;;;5035322;28;20063;-87
2023/08/23 10:13:12;;;;;;;3.92;1.65;;;25.60;48.50;;;;;;5030491;28;20053;-86
2023/08/23 10:15:40;;;;;;;4.50;1.67;;;25.60;48.30;;;;;;5032365;28;20049;-86
2023/08/23 10:18:11;;;;;;;8.48;2.28;;;25.60;49.20;;;;;;5035155;28;20481;-86
2023/08/23 10:20:42;;;;;;;4.35;1.80;;;25.70;49.10;;;;;;5039482;28;20048;-86
2023/08/23 10:23:13;;;;;;;2.90;1.48;;;25.70;47.70;;;;;;5037896;28;20480;-86
2023/08/23 10:25:42;;;;;;;4.82;2.30;;;25.80;48.50;;;;;;5036005;28;20049;-87
2023/08/23 10:28:12;;;;;;;4.45;1.80;;;25.80;47.50;;;;;;5038190;28;20052;-87
2023/08/23 10:30:42;;;;;;;4.88;1.50;;;25.90;48.90;;;;;;5040989;28;20056;-87
2023/08/23 10:33:11;;;;;;;2.92;1.40;;;25.90;48.50;;;;;;5039284;28;20504;-87
2023/08/23 10:35:42;;;;;;;6.00;1.92;;;25.90;48.70;;;;;;5040313;28;20416;-86
2023/08/23 10:38:11;;;;;;;3.65;1.48;;;26.00;47.60;;;;;;5037866;28;20424;-86
2023/08/23 10:40:40;;;;;;;8.55;1.67;;;26.00;48.10;;;;;;5038473;28;20052;-87
2023/08/23 10:43:14;;;;;;;2.88;1.30;;;26.00;46.60;;;;;;5033178;28;20060;-86
2023/08/23 10:45:52;;;;;;;3.70;1.10;;;26.00;46.70;;;;;;5040953;28;20044;-89
2023/08/23 10:48:20;;;;;;;6.05;1.65;;;26.10;46.90;;;;;;5038768;28;20758;-88
2023/08/23 10:50:50;;;;;;;5.93;1.60;;;26.10;46.10;;;;;;5038182;28;20060;-88
2023/08/23 10:53:18;;;;;;;6.05;1.50;;;26.10;46.20;;;;;;5034793;28;20064;-88
2023/08/23 10:55:46;;;;;;;6.43;1.80;;;26.20;45.70;;;;;;5039137;28;20519;-85
2023/08/23 10:58:13;;;;;;;4.53;1.60;;;26.20;46.00;;;;;;5037743;28;20060;-87
2023/08/23 11:00:42;;;;;;;5.53;1.40;;;26.30;46.40;;;;;;5036857;28;20496;-88
2023/08/23 11:03:11;;;;;;;1.80;0.98;;;26.30;45.80;;;;;;5035785;28;20047;-87
2023/08/23 11:05:38;;;;;;;3.33;1.30;;;26.30;46.00;;;;;;5039406;28;20381;-87
2023/08/23 11:08:08;;;;;;;3.85;1.65;;;26.30;46.00;;;;;;5037346;28;20057;-86
2023/08/23 11:10:37;;;;;;;2.67;1.15;;;26.40;45.40;;;;;;5038249;28;20068;-87
2023/08/23 11:13:05;;;;;;;2.15;1.20;;;26.40;46.10;;;;;;5038247;28;20049;-86
2023/08/23 11:15:33;;;;;;;6.65;0.93;;;26.50;45.80;;;;;;5043271;28;20045;-88
2023/08/23 11:18:01;;;;;;;5.07;1.58;;;26.50;46.10;;;;;;5036995;28;20056;-88
2023/08/23 11:20:29;;;;;;;2.13;1.17;;;26.50;46.30;;;;;;5037703;28;20052;-87
2023/08/23 11:22:56;;;;;;;9.77;1.98;;;26.50;46.10;;;;;;5038981;28;20048;-86
2023/08/23 11:25:25;;;;;;;6.25;1.80;;;26.60;44.90;;;;;;5042607;28;20049;-87
2023/08/23 11:27:52;;;;;;;4.80;1.33;;;26.60;45.00;;;;;;5040391;28;20053;-86
2023/08/23 11:30:21;;;;;;;5.28;1.55;;;26.60;44.70;;;;;;5035393;28;20064;-88
2023/08/23 11:32:50;;;;;;;2.58;1.25;;;26.60;45.60;;;;;;5037106;28;20048;-92
2023/08/23 11:35:19;;;;;;;3.45;1.90;;;26.70;46.20;;;;;;5039504;28;20053;-91
2023/08/23 11:37:49;;;;;;;4.15;1.30;;;26.70;44.90;;;;;;5045614;28;20068;-92
2023/08/23 11:40:17;;;;;;;3.90;1.70;;;26.70;44.00;;;;;;5032216;28;20060;-90
2023/08/23 11:42:46;;;;;;;2.35;1.20;;;26.80;44.40;;;;;;5036117;28;20055;-90
2023/08/23 11:45:13;;;;;;;4.15;1.75;;;26.80;44.40;;;;;;5038580;28;20053;-91
2023/08/23 11:47:41;;;;;;;2.75;1.70;;;26.90;43.90;;;;;;5039263;28;20052;-92
2023/08/23 11:50:09;;;;;;;3.90;1.60;;;26.90;44.70;;;;;;5033535;28;20053;-91
2023/08/23 11:52:37;;;;;;;4.47;1.60;;;27.00;45.30;;;;;;5040041;28;20765;-91
2023/08/23 11:55:04;;;;;;;2.20;1.60;;;27.00;45.20;;;;;;5038175;28;20044;-93
2023/08/23 11:57:33;;;;;;;3.92;1.70;;;27.10;45.20;;;;;;5038554;28;20061;-92
2023/08/23 12:00:08;;;;;;;4.57;1.83;;;27.10;45.50;;;;;;5031051;28;20053;-92
2023/08/23 12:02:36;;;;;;;5.78;1.73;;;27.10;43.40;;;;;;5034000;28;20091;-92
2023/08/23 12:05:04;;;;;;;6.43;1.67;;;27.10;43.00;;;;;;5037790;28;20497;-92
2023/08/23 12:07:41;;;;;;;5.90;2.13;;;27.10;43.40;;;;;;5029318;28;20405;-92
2023/08/23 12:10:09;;;;;;;4.30;1.90;;;27.20;43.20;;;;;;5033101;28;20583;-92
2023/08/23 12:12:37;;;;;;;4.60;1.73;;;27.20;43.10;;;;;;5033145;28;20053;-91
2023/08/23 12:15:07;;;;;;;3.55;1.77;;;27.20;44.20;;;;;;5038173;28;20408;-89
2023/08/23 12:17:39;;;;;;;5.15;2.90;;;27.30;44.10;;;;;;5036303;28;20057;-90
2023/08/23 12:20:10;;;;;;;3.75;2.10;;;27.30;44.60;;;;;;5039170;28;20061;-91
2023/08/23 12:22:46;;;;;;;3.40;1.98;;;27.30;44.60;;;;;;5035038;28;20064;-92
2023/08/23 12:25:13;;;;;;;4.10;1.60;;;27.40;44.30;;;;;;5040484;28;20053;-88
2023/08/23 12:27:41;;;;;;;2.92;1.60;;;27.40;44.80;;;;;;5032973;28;20060;-90
2023/08/23 12:30:11;;;;;;;7.72;1.88;;;27.50;44.60;;;;;;5031264;28;20045;-94
2023/08/23 12:32:38;;;;;;;3.75;1.90;;;27.50;44.60;;;;;;5033226;28;20060;-94
2023/08/23 12:35:32;;;;;;;3.88;1.90;;;27.50;44.00;;;;;;5039539;28;20045;-93
2023/08/23 12:38:27;;;;;;;5.57;1.95;;;27.50;43.30;;;;;;5025955;28;20045;-91
2023/08/23 12:41:44;;;;;;;6.10;2.20;;;27.60;42.50;;;;;;5030915;28;20057;-90
2023/08/23 12:44:28;;;;;;;4.30;1.67;;;27.70;42.30;;;;;;5160169;22;20479;-88
2023/08/23 12:47:15;;;;;;;6.43;2.00;;;27.70;44.60;;;;;;5050320;28;20384;-87
2023/08/23 12:50:02;;;;;;;5.53;2.13;;;27.80;43.50;;;;;;5049061;28;20087;-90
2023/08/23 12:52:30;;;;;;;6.10;2.13;;;27.80;42.60;;;;;;5046763;28;20041;-89
2023/08/23 12:55:08;;;;;;;5.38;2.20;;;27.90;41.80;;;;;;5052655;28;20420;-90
2023/08/23 12:58:22;;;;;;;2.58;1.80;;;27.90;41.90;;;;;;5050019;28;20056;-90
2023/08/23 13:00:56;;;;;;;4.60;1.70;;;27.90;41.30;;;;;;4987704;28;20112;-93